createdAt,value
2023-05-08T00:01:21.442Z,19.40
2023-05-08T00:04:08.540Z,19.40
2023-05-08T00:06:48.970Z,19.40
2023-05-08T00:09:35.300Z,19.40
2023-05-08T00:12:22.338Z,19.40
2023-05-08T00:15:02.286Z,19.40
2023-05-08T00:17:42.844Z,19.40
2023-05-08T00:20:29.298Z,19.30
2023-05-08T00:23:09.536Z,19.40
2023-05-08T00:25:56.281Z,19.40
2023-05-08T00:28:36.443Z,19.30
2023-05-08T00:31:23.391Z,19.30
2023-05-08T00:34:10.369Z,19.30
2023-05-08T00:36:50.272Z,19.30
2023-05-08T00:39:30.934Z,19.30
2023-05-08T00:42:17.310Z,19.30
2023-05-08T00:45:04.322Z,19.30
2023-05-08T00:47:44.326Z,19.20
2023-05-08T00:50:25.615Z,19.20
2023-05-08T00:53:14.301Z,19.20
2023-05-08T00:56:01.279Z,19.20
2023-05-08T00:58:48.324Z,19.20
2023-05-08T01:01:29.316Z,19.20
2023-05-08T01:04:18.276Z,19.20
2023-05-08T01:06:59.147Z,19.20
2023-05-08T01:09:47.291Z,19.20
2023-05-08T01:13:11.420Z,19.20
2023-05-08T01:15:58.337Z,19.20
2023-05-08T01:18:42.586Z,19.10
2023-05-08T01:21:43.284Z,19.10
2023-05-08T01:25:17.303Z,19.10
2023-05-08T01:28:25.297Z,19.10
2023-05-08T01:31:40.328Z,19.10
2023-05-08T01:34:32.405Z,19.00
2023-05-08T01:37:19.307Z,19.00
2023-05-08T01:40:17.457Z,19.00
2023-05-08T01:43:04.293Z,19.00
2023-05-08T01:45:50.000Z,19.00
2023-05-08T01:48:44.297Z,19.00
2023-05-08T01:51:35.724Z,19.00
2023-05-08T01:54:21.299Z,19.00
2023-05-08T01:57:09.456Z,19.00
2023-05-08T01:59:51.320Z,18.90
2023-05-08T02:02:40.418Z,18.90
2023-05-08T02:05:22.304Z,18.90
2023-05-08T02:08:04.328Z,18.90
2023-05-08T02:10:52.311Z,18.90
2023-05-08T02:13:35.626Z,19.00
2023-05-08T02:16:25.319Z,19.00
2023-05-08T02:19:08.074Z,19.00
2023-05-08T02:21:55.362Z,19.00
2023-05-08T02:24:43.374Z,19.00
2023-05-08T02:27:24.296Z,19.00
2023-05-08T02:30:12.623Z,19.00
2023-05-08T02:32:54.363Z,19.00
2023-05-08T02:35:42.344Z,19.00
2023-05-08T02:38:24.318Z,19.00
2023-05-08T02:41:07.089Z,18.90
2023-05-08T02:43:54.318Z,18.90
2023-05-08T02:47:06.903Z,18.90
2023-05-08T02:49:57.374Z,18.90
2023-05-08T02:52:52.308Z,18.90
2023-05-08T02:55:47.286Z,18.90
2023-05-08T02:58:55.325Z,18.80
2023-05-08T03:01:52.373Z,18.80
2023-05-08T03:04:46.306Z,18.80
2023-05-08T03:07:29.353Z,18.80
2023-05-08T03:10:19.311Z,18.70
2023-05-08T03:13:09.395Z,18.70
2023-05-08T03:16:02.395Z,18.80
2023-05-08T03:18:48.304Z,18.70
2023-05-08T03:21:30.434Z,18.70
2023-05-08T03:24:19.305Z,18.70
2023-05-08T03:27:00.577Z,18.70
2023-05-08T03:29:50.319Z,18.70
2023-05-08T03:32:39.480Z,18.70
2023-05-08T03:35:22.331Z,18.70
2023-05-08T03:38:03.353Z,18.70
2023-05-08T03:40:51.307Z,18.70
2023-05-08T03:43:32.768Z,18.70
2023-05-08T03:46:19.340Z,18.70
2023-05-08T03:49:00.342Z,18.70
2023-05-08T03:51:50.303Z,18.70
2023-05-08T03:54:37.535Z,18.70
2023-05-08T03:57:18.303Z,18.70
2023-05-08T04:00:06.414Z,18.70
2023-05-08T04:03:10.493Z,18.70
2023-05-08T04:06:13.310Z,18.70
2023-05-08T04:09:33.316Z,18.70
2023-05-08T04:12:33.314Z,18.70
2023-05-08T04:15:35.317Z,18.70
2023-05-08T04:18:25.316Z,18.70
2023-05-08T04:21:16.317Z,18.70
2023-05-08T04:24:05.318Z,18.60
2023-05-08T04:27:00.418Z,18.60
2023-05-08T04:29:47.326Z,18.60
2023-05-08T04:32:35.344Z,18.60
2023-05-08T04:35:22.419Z,18.60
2023-05-08T04:38:03.340Z,18.60
2023-05-08T04:40:43.812Z,18.70
2023-05-08T04:43:31.328Z,18.70
2023-05-08T04:46:19.359Z,18.70
2023-05-08T04:49:01.439Z,18.70
2023-05-08T04:51:48.331Z,18.70
2023-05-08T04:54:35.334Z,18.80
2023-05-08T04:57:15.490Z,18.80
2023-05-08T05:00:02.355Z,18.90
2023-05-08T05:02:52.377Z,18.80
2023-05-08T05:05:39.308Z,18.90
2023-05-08T05:08:19.783Z,18.90
2023-05-08T05:11:07.324Z,18.90
2023-05-08T05:13:47.470Z,18.90
2023-05-08T05:16:34.363Z,19.00
2023-05-08T05:19:14.830Z,19.00
2023-05-08T05:22:01.329Z,19.00
2023-05-08T05:24:48.299Z,19.00
2023-05-08T05:27:28.382Z,19.10
2023-05-08T05:30:15.455Z,19.10
2023-05-08T05:33:02.391Z,19.20
2023-05-08T05:35:49.309Z,19.20
2023-05-08T05:38:37.304Z,19.30
2023-05-08T05:41:17.796Z,19.30
2023-05-08T05:44:04.318Z,19.30
2023-05-08T05:46:45.504Z,19.40
2023-05-08T05:49:32.314Z,19.40
2023-05-08T05:52:20.375Z,19.40
2023-05-08T05:55:00.316Z,19.50
2023-05-08T05:57:40.807Z,19.50
2023-05-08T06:00:28.370Z,19.60
2023-05-08T06:03:17.391Z,19.60
2023-05-08T06:05:57.411Z,19.70
2023-05-08T06:08:44.356Z,19.70
2023-05-08T06:11:24.475Z,19.70
2023-05-08T06:14:11.354Z,19.80
2023-05-08T06:16:51.497Z,19.80
2023-05-08T06:19:38.328Z,19.90
2023-05-08T06:22:25.324Z,19.90
2023-05-08T06:25:13.578Z,20.00
2023-05-08T06:27:53.474Z,20.10
2023-05-08T06:30:41.375Z,20.20
2023-05-08T06:33:21.483Z,20.20
2023-05-08T06:36:08.343Z,20.30
2023-05-08T06:38:48.401Z,20.40
2023-05-08T06:41:35.342Z,20.50
2023-05-08T06:44:22.377Z,20.50
2023-05-08T06:47:09.500Z,20.70
2023-05-08T06:49:49.359Z,20.70
2023-05-08T06:52:29.824Z,20.80
2023-05-08T06:55:16.321Z,20.90
2023-05-08T06:58:03.341Z,21.00
2023-05-08T07:00:43.373Z,21.10
2023-05-08T07:03:30.373Z,21.30
2023-05-08T07:06:10.499Z,21.40
2023-05-08T07:08:57.338Z,21.60
2023-05-08T07:11:37.490Z,21.70
2023-05-08T07:14:24.332Z,21.80
2023-05-08T07:17:06.930Z,21.80
2023-05-08T07:19:57.369Z,21.90
2023-05-08T07:22:37.423Z,22.00
2023-05-08T07:25:24.344Z,22.10
2023-05-08T07:28:11.330Z,22.20
2023-05-08T07:30:58.405Z,22.20
2023-05-08T07:33:38.350Z,22.20
2023-05-08T07:36:25.459Z,22.20
2023-05-08T07:39:05.341Z,22.20
2023-05-08T07:41:52.457Z,22.30
2023-05-08T07:44:40.304Z,22.40
2023-05-08T07:47:29.107Z,22.50
2023-05-08T07:50:16.357Z,22.60
2023-05-08T07:53:03.421Z,22.50
2023-05-08T07:55:43.390Z,22.50
2023-05-08T07:58:24.064Z,22.40
2023-05-08T08:01:10.313Z,22.40
2023-05-08T08:03:50.905Z,22.40
2023-05-08T08:06:37.335Z,22.40
2023-05-08T08:09:17.821Z,22.40
2023-05-08T08:12:04.353Z,22.30
2023-05-08T08:14:51.444Z,22.40
2023-05-08T08:17:31.382Z,22.30
2023-05-08T08:20:12.210Z,22.40
2023-05-08T08:22:59.380Z,22.30
2023-05-08T08:25:46.363Z,22.30
2023-05-08T08:28:33.481Z,22.20
2023-05-08T08:31:13.367Z,22.20
2023-05-08T08:33:53.899Z,22.20
2023-05-08T08:36:40.386Z,22.20
2023-05-08T08:39:21.226Z,22.20
2023-05-08T08:42:08.357Z,22.20
2023-05-08T08:44:55.405Z,22.10
2023-05-08T08:47:36.371Z,22.10
2023-05-08T08:50:20.014Z,22.10
2023-05-08T08:53:34.350Z,22.10
2023-05-08T08:56:23.584Z,22.20
2023-05-08T08:59:06.344Z,22.20
2023-05-08T09:01:59.510Z,22.20
2023-05-08T09:04:39.496Z,22.20
2023-05-08T09:07:27.368Z,22.30
2023-05-08T09:10:07.741Z,22.30
2023-05-08T09:12:55.372Z,22.40
2023-05-08T09:15:42.341Z,22.40
2023-05-08T09:18:22.899Z,22.40
2023-05-08T09:21:10.368Z,22.40
2023-05-08T09:24:08.912Z,22.40
2023-05-08T09:26:55.350Z,22.40
2023-05-08T09:29:42.472Z,22.50
2023-05-08T09:32:25.378Z,22.50
2023-05-08T09:35:08.222Z,22.50
2023-05-08T09:37:57.383Z,22.60
2023-05-08T09:40:37.862Z,22.60
2023-05-08T09:43:27.364Z,22.60
2023-05-08T09:46:22.893Z,22.70
2023-05-08T09:49:11.391Z,22.70
2023-05-08T09:51:56.135Z,22.80
2023-05-08T09:54:42.365Z,22.90
2023-05-08T09:57:22.912Z,23.10
2023-05-08T10:00:26.406Z,23.10
2023-05-08T10:03:06.973Z,23.00
2023-05-08T10:05:54.412Z,22.90
2023-05-08T10:08:34.839Z,22.90
2023-05-08T10:11:33.369Z,22.80
2023-05-08T10:14:27.393Z,22.80
2023-05-08T10:17:10.331Z,22.80
2023-05-08T10:20:01.407Z,22.80
2023-05-08T10:22:50.370Z,22.80
2023-05-08T10:25:31.422Z,22.80
2023-05-08T10:28:46.380Z,22.80
2023-05-08T10:31:40.583Z,22.80
2023-05-08T10:34:26.367Z,22.80
2023-05-08T10:37:16.357Z,22.90
2023-05-08T10:39:58.824Z,23.00
2023-05-08T10:42:46.362Z,23.00
2023-05-08T10:45:33.402Z,22.90
2023-05-08T10:48:32.432Z,23.00
2023-05-08T10:51:14.408Z,22.90
2023-05-08T10:54:29.762Z,23.00
2023-05-08T10:57:17.373Z,23.00
2023-05-08T11:00:04.498Z,23.00
2023-05-08T11:02:44.432Z,23.00
2023-05-08T11:05:38.425Z,23.00
2023-05-08T11:08:29.368Z,23.00
2023-05-08T11:11:20.384Z,23.10
2023-05-08T11:14:13.430Z,23.20
2023-05-08T11:17:09.369Z,23.20
2023-05-08T11:20:00.923Z,23.20
2023-05-08T11:22:49.360Z,23.10
2023-05-08T11:25:50.438Z,23.10
2023-05-08T11:28:45.378Z,23.10
2023-05-08T11:31:32.485Z,23.00
2023-05-08T11:34:50.545Z,23.00
2023-05-08T11:37:31.389Z,23.10
2023-05-08T11:40:46.167Z,23.20
2023-05-08T11:43:48.382Z,23.20
2023-05-08T11:46:44.415Z,23.30
2023-05-08T11:49:35.356Z,23.30
2023-05-08T11:52:25.393Z,23.40
2023-05-08T11:55:16.395Z,23.40
2023-05-08T11:58:03.658Z,23.30
2023-05-08T12:00:48.444Z,23.30
2023-05-08T12:03:42.551Z,23.20
2023-05-08T12:06:30.410Z,23.20
2023-05-08T12:09:17.463Z,23.10
2023-05-08T12:12:04.399Z,23.00
2023-05-08T12:14:44.422Z,22.90
2023-05-08T12:17:31.438Z,23.00
2023-05-08T12:20:25.471Z,23.00
2023-05-08T12:23:12.395Z,23.10
2023-05-08T12:25:55.181Z,23.20
2023-05-08T12:28:42.378Z,23.30
2023-05-08T12:31:22.739Z,23.40
2023-05-08T12:34:11.392Z,23.50
2023-05-08T12:36:58.400Z,23.50
2023-05-08T12:39:50.488Z,23.50
2023-05-08T12:42:52.413Z,23.50
2023-05-08T12:45:42.428Z,23.40
2023-05-08T12:48:22.539Z,23.30
2023-05-08T12:51:10.393Z,23.30
2023-05-08T12:54:00.384Z,23.30
2023-05-08T12:56:46.835Z,23.40
2023-05-08T12:59:42.380Z,23.40
2023-05-08T13:02:34.486Z,23.40
2023-05-08T13:05:17.441Z,23.40
2023-05-08T13:08:08.416Z,23.30
2023-05-08T13:11:01.393Z,23.40
2023-05-08T13:13:48.432Z,23.30
2023-05-08T13:16:28.482Z,23.20
2023-05-08T13:19:08.915Z,23.20
2023-05-08T13:21:55.460Z,23.20
2023-05-08T13:24:35.864Z,23.20
2023-05-08T13:27:22.409Z,23.10
2023-05-08T13:30:02.936Z,23.10
2023-05-08T13:32:49.477Z,23.10
2023-05-08T13:35:36.438Z,23.10
2023-05-08T13:38:23.431Z,23.10
2023-05-08T13:41:10.411Z,23.10
2023-05-08T13:43:57.437Z,23.10
2023-05-08T13:46:37.921Z,23.10
2023-05-08T13:49:25.419Z,23.00
2023-05-08T13:52:12.434Z,23.00
2023-05-08T13:54:52.740Z,22.90
2023-05-08T13:57:39.415Z,22.90
2023-05-08T14:00:20.495Z,22.90
2023-05-08T14:03:07.496Z,23.00
2023-05-08T14:05:47.532Z,23.00
2023-05-08T14:08:35.198Z,23.10
2023-05-08T14:11:17.470Z,23.20
2023-05-08T14:14:04.452Z,23.20
2023-05-08T14:16:51.408Z,23.20
2023-05-08T14:19:39.453Z,23.20
2023-05-08T14:22:26.406Z,23.10
2023-05-08T14:25:07.871Z,23.10
2023-05-08T14:27:54.413Z,23.10
2023-05-08T14:30:41.458Z,23.00
2023-05-08T14:33:21.496Z,22.90
2023-05-08T14:36:08.516Z,22.90
2023-05-08T14:38:48.403Z,22.90
2023-05-08T14:41:29.386Z,22.90
2023-05-08T14:44:16.430Z,22.90
2023-05-08T14:46:57.084Z,22.90
2023-05-08T14:49:43.407Z,22.90
2023-05-08T14:52:23.948Z,22.90
2023-05-08T14:55:10.605Z,22.90
2023-05-08T14:57:50.935Z,22.90
2023-05-08T15:00:37.424Z,22.90
2023-05-08T15:03:18.114Z,22.90
2023-05-08T15:06:04.462Z,22.80
2023-05-08T15:08:44.893Z,22.90
2023-05-08T15:11:31.453Z,22.80
2023-05-08T15:14:11.896Z,22.80
2023-05-08T15:16:58.450Z,22.80
2023-05-08T15:19:39.993Z,22.70
2023-05-08T15:22:28.308Z,22.70
2023-05-08T15:25:09.109Z,22.70
2023-05-08T15:28:00.733Z,22.70
2023-05-08T15:30:41.465Z,22.70
2023-05-08T15:33:28.435Z,22.70
2023-05-08T15:36:15.457Z,22.70
2023-05-08T15:38:55.559Z,22.70
2023-05-08T15:41:43.449Z,22.70
2023-05-08T15:44:28.757Z,22.70
2023-05-08T15:47:20.454Z,22.70
2023-05-08T15:50:08.454Z,22.70
2023-05-08T15:52:49.083Z,22.70
2023-05-08T15:55:35.445Z,22.70
2023-05-08T15:58:22.463Z,22.70
2023-05-08T16:01:04.710Z,22.70
2023-05-08T16:03:51.482Z,22.70
2023-05-08T16:06:39.481Z,22.70
2023-05-08T16:09:26.468Z,22.70
2023-05-08T16:12:06.436Z,22.70
2023-05-08T16:14:46.972Z,22.70
2023-05-08T16:17:33.585Z,22.70
2023-05-08T16:20:14.016Z,22.70
2023-05-08T16:23:01.412Z,22.70
2023-05-08T16:25:41.918Z,22.60
2023-05-08T16:28:43.446Z,22.60
2023-05-08T16:31:24.035Z,22.60
2023-05-08T16:34:10.469Z,22.60
2023-05-08T16:36:50.930Z,22.60
2023-05-08T16:39:37.440Z,22.60
2023-05-08T16:42:24.569Z,22.60
2023-05-08T16:45:04.454Z,22.60
2023-05-08T16:47:51.497Z,22.60
2023-05-08T16:50:38.488Z,22.60
2023-05-08T16:53:19.019Z,22.70
2023-05-08T16:56:05.456Z,22.70
2023-05-08T16:58:52.444Z,22.70
2023-05-08T17:01:39.473Z,22.80
2023-05-08T17:04:20.093Z,22.80
2023-05-08T17:07:06.451Z,22.80
2023-05-08T17:09:55.463Z,22.80
2023-05-08T17:12:35.821Z,22.80
2023-05-08T17:15:22.486Z,22.80
2023-05-08T17:18:02.584Z,22.80
2023-05-08T17:20:49.606Z,22.80
2023-05-08T17:23:36.448Z,22.80
2023-05-08T17:26:16.956Z,22.80
2023-05-08T17:29:03.476Z,22.80
2023-05-08T17:31:50.480Z,22.70
2023-05-08T17:34:30.619Z,22.70
2023-05-08T17:37:18.455Z,22.70
2023-05-08T17:40:05.429Z,22.70
2023-05-08T17:42:45.948Z,22.70
2023-05-08T17:45:32.493Z,22.70
2023-05-08T17:48:12.931Z,22.60
2023-05-08T17:50:59.468Z,22.60
2023-05-08T17:53:46.523Z,22.60
2023-05-08T17:56:31.137Z,22.50
2023-05-08T17:59:11.930Z,22.50
2023-05-08T18:01:58.497Z,22.50
2023-05-08T18:04:38.969Z,22.50
2023-05-08T18:07:25.450Z,22.50
2023-05-08T18:10:06.604Z,22.50
2023-05-08T18:12:53.519Z,22.50
2023-05-08T18:15:36.105Z,22.50
2023-05-08T18:18:22.454Z,22.50
2023-05-08T18:21:09.622Z,22.50
2023-05-08T18:23:49.477Z,22.40
2023-05-08T18:26:30.068Z,22.40
2023-05-08T18:29:16.464Z,22.40
2023-05-08T18:31:56.924Z,22.40
2023-05-08T18:34:43.488Z,22.40
2023-05-08T18:37:30.530Z,22.30
2023-05-08T18:40:11.639Z,22.40
2023-05-08T18:42:58.638Z,22.30
2023-05-08T18:45:38.440Z,22.30
2023-05-08T18:48:19.088Z,22.30
2023-05-08T18:51:05.453Z,22.30
2023-05-08T18:53:52.473Z,22.20
2023-05-08T18:56:40.475Z,22.20
2023-05-08T18:59:21.512Z,22.20
2023-05-08T19:02:08.470Z,22.20
2023-05-08T19:04:48.925Z,22.20
2023-05-08T19:07:35.456Z,22.10
2023-05-08T19:10:16.201Z,22.10
2023-05-08T19:13:03.490Z,22.10
2023-05-08T19:15:44.080Z,22.10
2023-05-08T19:18:30.464Z,22.00
2023-05-08T19:21:17.485Z,22.00
2023-05-08T19:23:57.517Z,21.90
2023-05-08T19:26:44.488Z,21.90
2023-05-08T19:29:24.509Z,21.90
2023-05-08T19:32:11.483Z,21.90
2023-05-08T19:34:51.590Z,21.90
2023-05-08T19:37:38.466Z,21.80
2023-05-08T19:40:19.532Z,21.80
2023-05-08T19:43:06.460Z,21.80
2023-05-08T19:45:46.622Z,21.70
2023-05-08T19:48:33.489Z,21.70
2023-05-08T19:51:16.677Z,21.70
2023-05-08T19:54:03.468Z,21.70
2023-05-08T19:56:43.582Z,21.70
2023-05-08T19:59:30.483Z,21.70
2023-05-08T20:02:17.500Z,21.70
2023-05-08T20:07:47.469Z,21.60
2023-05-08T20:10:27.999Z,21.50
2023-05-08T20:13:14.494Z,21.50
2023-05-08T20:16:01.513Z,21.50
2023-05-08T20:18:48.487Z,21.50
2023-05-08T20:21:32.360Z,21.50
2023-05-08T20:24:19.492Z,21.40
2023-05-08T20:27:00.028Z,21.40
2023-05-08T20:29:46.461Z,21.30
2023-05-08T20:32:33.529Z,21.30
2023-05-08T20:35:14.794Z,21.20
2023-05-08T20:38:01.502Z,21.20
2023-05-08T20:40:41.530Z,21.20
2023-05-08T20:43:28.492Z,21.10
2023-05-08T20:46:08.637Z,21.10
2023-05-08T20:48:56.493Z,21.10
2023-05-08T20:51:36.629Z,21.10
2023-05-08T20:54:23.492Z,21.10
2023-05-08T20:57:10.503Z,21.00
2023-05-08T20:59:51.063Z,21.00
2023-05-08T21:02:37.503Z,21.00
2023-05-08T21:05:18.647Z,21.00
2023-05-08T21:08:08.477Z,21.00
2023-05-08T21:10:55.509Z,21.00
2023-05-08T21:13:35.550Z,21.00
2023-05-08T21:16:23.758Z,21.00
2023-05-08T21:19:11.487Z,21.00
2023-05-08T21:21:58.486Z,21.00
2023-05-08T21:24:45.484Z,21.00
2023-05-08T21:27:33.470Z,21.00
2023-05-08T21:30:20.658Z,20.90
2023-05-08T21:33:00.530Z,20.90
2023-05-08T21:35:48.503Z,21.00
2023-05-08T21:38:28.575Z,20.90
2023-05-08T21:41:15.486Z,20.90
2023-05-08T21:44:02.513Z,20.90
2023-05-08T21:46:49.489Z,20.90
2023-05-08T21:49:36.505Z,20.90
2023-05-08T21:52:22.003Z,20.90
2023-05-08T21:55:08.600Z,20.80
2023-05-08T21:57:55.496Z,20.80
2023-05-08T22:00:35.986Z,20.80
2023-05-08T22:03:22.694Z,20.80
2023-05-08T22:06:03.092Z,20.80
2023-05-08T22:08:49.537Z,20.80
2023-05-08T22:11:31.491Z,20.80
2023-05-08T22:14:18.471Z,20.80
2023-05-08T22:16:59.042Z,20.70
2023-05-08T22:19:45.475Z,20.70
2023-05-08T22:22:32.566Z,20.70
2023-05-08T22:25:13.686Z,20.70
2023-05-08T22:27:54.072Z,20.70
2023-05-08T22:30:40.511Z,20.70
2023-05-08T22:33:20.987Z,20.70
2023-05-08T22:36:07.504Z,20.70
2023-05-08T22:38:47.989Z,20.70
2023-05-08T22:41:34.519Z,20.70
2023-05-08T22:44:21.571Z,20.60
2023-05-08T22:47:01.598Z,20.60
2023-05-08T22:49:42.442Z,20.60
2023-05-08T22:52:29.498Z,20.60
2023-05-08T22:55:10.134Z,20.60
2023-05-08T22:57:56.516Z,20.60
2023-05-08T23:00:37.003Z,20.60
2023-05-08T23:03:23.513Z,20.50
2023-05-08T23:06:10.536Z,20.60
2023-05-08T23:08:50.516Z,20.50
2023-05-08T23:11:37.495Z,20.50
2023-05-08T23:14:17.608Z,20.50
2023-05-08T23:17:04.672Z,20.50
2023-05-08T23:19:45.413Z,20.50
2023-05-08T23:22:32.513Z,20.50
2023-05-08T23:25:15.763Z,20.50
2023-05-08T23:28:02.510Z,20.50
2023-05-08T23:30:49.540Z,20.40
2023-05-08T23:33:29.510Z,20.40
2023-05-08T23:36:10.060Z,20.40
2023-05-08T23:38:56.497Z,20.40
2023-05-08T23:41:43.566Z,20.40
2023-05-08T23:44:24.497Z,20.40
2023-05-08T23:47:11.763Z,20.40
2023-05-08T23:49:51.506Z,20.40
2023-05-08T23:52:32.063Z,20.40
2023-05-08T23:55:18.522Z,20.40
2023-05-08T23:57:58.993Z,20.40
